Time;durP1;ratioP1;P1;durP2;ratioP2;P2;SDS_P1;SDS_P2;PMS_P1;PMS_P2;Temp;Humidity;BMP_temperature;BMP_pressure;BME280_temperature;BME280_humidity;BME280_pressure;Samples;Min_cycle;Max_cycle;Signal;HPM_P1;HPM_P2
2021/12/29 00:01:51;;;;;;;49.60;30.00;;;5.10;99.90;;;;;;5052891;28;20196;-48
2021/12/29 00:04:17;;;;;;;46.33;29.17;;;5.00;99.90;;;;;;5052055;28;20195;-49
2021/12/29 00:06:44;;;;;;;46.42;28.67;;;5.10;99.90;;;;;;5052672;28;20216;-48
2021/12/29 00:09:11;;;;;;;46.45;30.25;;;5.10;99.90;;;;;;5052540;28;20286;-48
2021/12/29 00:11:40;;;;;;;40.90;27.00;;;5.10;99.90;;;;;;5052602;28;20200;-49
2021/12/29 00:14:10;;;;;;;49.13;30.02;;;5.10;99.90;;;;;;5052075;28;20568;-49
2021/12/29 00:16:37;;;;;;;45.42;28.30;;;5.10;99.90;;;;;;5052180;28;20661;-49
2021/12/29 00:19:06;;;;;;;40.88;26.63;;;5.00;99.90;;;;;;5051545;28;20577;-49
2021/12/29 00:21:33;;;;;;;46.15;28.83;;;5.10;99.90;;;;;;5052161;28;20203;-48
2021/12/29 00:24:00;;;;;;;37.90;28.13;;;4.90;99.90;;;;;;5051795;28;20235;-50
2021/12/29 00:26:27;;;;;;;53.20;30.67;;;4.90;99.90;;;;;;5052042;28;20840;-48
2021/12/29 00:28:58;;;;;;;48.07;29.03;;;5.10;99.90;;;;;;5051191;28;20216;-48
2021/12/29 00:31:25;;;;;;;44.53;29.13;;;5.10;99.90;;;;;;5051928;28;20429;-48
2021/12/29 00:34:11;;;;;;;50.30;28.65;;;5.10;99.90;;;;;;5052010;28;20211;-49
2021/12/29 00:36:57;;;;;;;47.83;28.70;;;5.10;99.90;;;;;;5051776;28;20245;-48
2021/12/29 00:39:50;;;;;;;43.08;28.40;;;5.10;99.90;;;;;;5027761;28;20344;-50
2021/12/29 00:42:46;;;;;;;49.53;30.85;;;5.10;99.90;;;;;;5014984;28;20221;-49
2021/12/29 00:45:32;;;;;;;44.08;28.33;;;5.10;99.90;;;;;;5051718;28;20343;-48
2021/12/29 00:47:59;;;;;;;43.38;27.17;;;5.10;99.90;;;;;;5051371;28;20225;-49
2021/12/29 00:50:28;;;;;;;40.28;24.52;;;5.10;99.90;;;;;;5051219;28;20544;-50
2021/12/29 00:52:54;;;;;;;41.03;25.97;;;5.10;99.90;;;;;;5051895;28;20683;-50
2021/12/29 00:55:21;;;;;;;44.15;26.58;;;5.10;99.90;;;;;;5051418;28;20434;-48
2021/12/29 00:57:48;;;;;;;43.33;27.17;;;5.10;99.90;;;;;;5051081;28;20704;-49
2021/12/29 01:00:17;;;;;;;44.50;27.10;;;5.10;99.90;;;;;;5051314;28;20203;-50
2021/12/29 01:02:45;;;;;;;40.13;26.02;;;5.20;99.90;;;;;;5051559;28;20192;-48
2021/12/29 01:05:14;;;;;;;44.88;27.25;;;5.20;99.90;;;;;;5051115;28;20200;-49
2021/12/29 01:07:44;;;;;;;48.42;30.38;;;5.20;99.90;;;;;;5051069;28;20606;-50
2021/12/29 01:10:12;;;;;;;40.90;26.40;;;5.20;99.90;;;;;;5051270;28;20207;-48
2021/12/29 01:12:46;;;;;;;43.25;27.42;;;5.20;99.90;;;;;;5051758;28;20416;-48
2021/12/29 01:15:14;;;;;;;41.60;26.85;;;5.20;99.90;;;;;;5052807;28;20574;-48
2021/12/29 01:17:41;;;;;;;44.90;27.25;;;5.10;99.90;;;;;;5054891;28;20526;-50
2021/12/29 01:20:09;;;;;;;46.25;27.98;;;5.10;99.90;;;;;;5055286;28;20289;-48
2021/12/29 01:22:35;;;;;;;41.70;27.70;;;5.20;99.90;;;;;;5055472;28;20223;-49
2021/12/29 01:25:03;;;;;;;49.30;28.33;;;5.00;99.90;;;;;;5055244;28;20192;-48
2021/12/29 01:27:30;;;;;;;40.75;26.90;;;5.00;99.90;;;;;;5054947;28;20482;-48
2021/12/29 01:29:57;;;;;;;39.50;26.75;;;5.00;99.90;;;;;;5055491;28;20603;-49
2021/12/29 01:32:24;;;;;;;47.03;28.70;;;5.00;99.90;;;;;;5055367;28;20203;-48
2021/12/29 01:34:51;;;;;;;44.55;25.90;;;5.00;99.90;;;;;;5055184;28;20220;-48
2021/12/29 01:37:18;;;;;;;42.90;27.85;;;5.00;99.90;;;;;;5054988;28;20230;-49
2021/12/29 01:39:45;;;;;;;45.35;26.88;;;5.00;99.90;;;;;;5054689;28;20302;-48
2021/12/29 01:42:13;;;;;;;48.78;29.08;;;5.00;99.90;;;;;;5054862;28;20203;-51
2021/12/29 01:44:39;;;;;;;47.13;28.13;;;5.00;99.90;;;;;;5054909;28;20196;-50
2021/12/29 01:47:06;;;;;;;46.57;29.00;;;5.10;99.90;;;;;;5054833;28;20236;-48
2021/12/29 01:49:33;;;;;;;41.38;25.15;;;5.00;99.90;;;;;;5054411;28;20496;-48
2021/12/29 01:52:10;;;;;;;39.88;25.70;;;5.00;99.90;;;;;;5054610;28;20199;-49
2021/12/29 01:54:37;;;;;;;45.17;27.35;;;5.00;99.90;;;;;;5054817;28;20684;-48
2021/12/29 01:57:06;;;;;;;45.47;27.80;;;5.00;99.90;;;;;;5054486;28;20275;-48
2021/12/29 01:59:35;;;;;;;43.03;26.00;;;5.00;99.90;;;;;;5054413;28;20220;-48
2021/12/29 02:02:02;;;;;;;41.20;25.83;;;5.00;99.90;;;;;;5054759;28;20207;-48
2021/12/29 02:04:29;;;;;;;45.17;27.00;;;5.00;99.90;;;;;;5036622;28;20255;-48
2021/12/29 02:06:56;;;;;;;44.58;27.42;;;5.00;99.90;;;;;;5054335;28;20219;-49
2021/12/29 02:09:22;;;;;;;40.22;25.55;;;5.00;99.90;;;;;;5054103;28;20215;-48
2021/12/29 02:11:50;;;;;;;42.65;26.40;;;5.00;99.90;;;;;;5054085;28;20199;-47
2021/12/29 02:14:17;;;;;;;44.17;29.48;;;5.00;99.90;;;;;;5054493;28;20211;-47
2021/12/29 02:16:45;;;;;;;45.87;25.00;;;5.00;99.90;;;;;;5054315;28;20196;-48
2021/12/29 02:19:13;;;;;;;41.10;25.92;;;5.00;99.90;;;;;;5054031;28;20450;-48
2021/12/29 02:21:51;;;;;;;42.63;26.67;;;5.00;99.90;;;;;;5054320;28;20660;-48
2021/12/29 02:24:20;;;;;;;39.42;25.48;;;5.00;99.90;;;;;;5054360;28;20635;-49
2021/12/29 02:26:48;;;;;;;40.90;25.50;;;5.10;99.90;;;;;;5053794;28;20220;-48
2021/12/29 02:29:17;;;;;;;41.15;24.95;;;5.10;99.90;;;;;;5053794;28;20467;-50
2021/12/29 02:31:44;;;;;;;36.28;23.00;;;5.10;99.90;;;;;;5054671;28;20197;-49
2021/12/29 02:34:13;;;;;;;37.05;25.02;;;5.10;99.90;;;;;;5054816;28;20200;-47
2021/12/29 02:36:44;;;;;;;37.30;22.33;;;5.10;99.90;;;;;;5054461;28;20196;-49
2021/12/29 02:39:13;;;;;;;40.08;26.60;;;5.20;99.90;;;;;;5054479;28;20217;-48
2021/12/29 02:41:44;;;;;;;36.58;23.40;;;5.20;99.90;;;;;;5054478;28;20192;-47
2021/12/29 02:44:16;;;;;;;34.38;23.85;;;5.20;99.90;;;;;;5054507;28;20553;-49
2021/12/29 02:46:43;;;;;;;36.53;24.65;;;5.20;99.90;;;;;;5054167;28;20248;-49
2021/12/29 02:49:10;;;;;;;37.53;25.58;;;5.20;99.90;;;;;;5053277;28;20222;-48
2021/12/29 02:51:37;;;;;;;37.72;24.25;;;5.20;99.90;;;;;;5053770;28;20208;-49
2021/12/29 02:54:05;;;;;;;39.10;24.13;;;5.30;99.90;;;;;;5054093;28;20207;-48
2021/12/29 02:56:32;;;;;;;41.30;23.88;;;5.30;99.90;;;;;;5053540;28;20203;-48
2021/12/29 02:58:59;;;;;;;40.97;23.92;;;5.30;99.90;;;;;;5053063;28;20285;-48
2021/12/29 03:01:27;;;;;;;38.50;24.55;;;5.30;99.90;;;;;;5053596;28;20201;-50
2021/12/29 03:03:56;;;;;;;34.25;22.95;;;5.30;99.90;;;;;;5053376;28;20616;-49
2021/12/29 03:06:23;;;;;;;39.43;24.27;;;5.40;99.90;;;;;;5053401;28;20220;-49
2021/12/29 03:08:50;;;;;;;34.30;23.70;;;5.30;99.90;;;;;;5052788;28;20459;-49
2021/12/29 03:11:19;;;;;;;33.75;24.50;;;5.40;99.90;;;;;;5053406;28;20434;-49
2021/12/29 03:13:45;;;;;;;35.17;24.20;;;5.40;99.90;;;;;;5053222;28;20202;-50
2021/12/29 03:16:14;;;;;;;36.25;24.45;;;5.40;99.90;;;;;;5053252;28;20445;-48
2021/12/29 03:18:42;;;;;;;37.67;24.35;;;5.40;99.90;;;;;;5052671;28;20225;-47
2021/12/29 03:21:09;;;;;;;30.63;22.88;;;5.40;99.90;;;;;;5053263;28;20203;-49
2021/12/29 03:23:37;;;;;;;37.13;22.88;;;5.40;99.90;;;;;;5053155;28;20208;-49
2021/12/29 03:26:03;;;;;;;29.98;22.55;;;5.40;99.90;;;;;;5053055;28;20191;-49
2021/12/29 03:28:31;;;;;;;36.47;22.88;;;5.40;99.90;;;;;;5052535;28;20219;-49
2021/12/29 03:30:58;;;;;;;34.20;21.43;;;5.50;99.90;;;;;;5052967;28;20208;-50
2021/12/29 03:33:28;;;;;;;32.47;22.08;;;5.50;99.90;;;;;;5052927;28;20442;-49
2021/12/29 03:35:57;;;;;;;30.70;22.70;;;5.50;99.90;;;;;;5053215;28;20227;-49
2021/12/29 03:38:26;;;;;;;33.83;23.10;;;5.50;99.90;;;;;;5052253;28;20266;-49
2021/12/29 03:40:54;;;;;;;30.20;21.47;;;5.50;99.90;;;;;;5053707;28;20203;-48
2021/12/29 03:43:21;;;;;;;30.08;21.88;;;5.50;99.90;;;;;;5052969;28;20864;-48
2021/12/29 03:45:51;;;;;;;28.87;19.80;;;5.50;99.90;;;;;;5052921;28;20404;-48
2021/12/29 03:48:20;;;;;;;35.23;22.13;;;5.50;99.90;;;;;;5034420;28;20503;-49
2021/12/29 03:50:48;;;;;;;35.85;22.23;;;5.40;99.90;;;;;;5052625;28;20993;-49
2021/12/29 03:53:16;;;;;;;37.10;22.57;;;5.40;99.90;;;;;;5034581;28;20231;-48
2021/12/29 03:55:43;;;;;;;34.00;22.05;;;5.40;99.90;;;;;;5052418;28;20996;-50
2021/12/29 03:58:10;;;;;;;30.45;20.38;;;5.30;99.90;;;;;;5051871;28;20212;-48
2021/12/29 04:00:37;;;;;;;32.63;21.43;;;5.40;99.90;;;;;;5052433;28;20200;-48
2021/12/29 04:03:06;;;;;;;35.35;22.77;;;5.40;99.90;;;;;;5052268;28;20461;-49
2021/12/29 04:05:34;;;;;;;27.92;20.95;;;5.40;99.90;;;;;;5034363;28;20223;-48
2021/12/29 04:08:02;;;;;;;31.80;20.80;;;5.40;99.90;;;;;;5051756;28;20304;-48
2021/12/29 04:10:29;;;;;;;32.05;22.40;;;5.40;99.90;;;;;;5052025;28;20618;-48
2021/12/29 04:12:56;;;;;;;32.58;21.80;;;5.40;99.90;;;;;;5052238;28;20196;-50
2021/12/29 04:15:25;;;;;;;31.80;20.07;;;5.40;99.90;;;;;;5034159;28;20278;-49
2021/12/29 04:17:58;;;;;;;33.67;20.05;;;5.40;99.90;;;;;;5052030;28;20465;-50
2021/12/29 04:23:15;;;;;;;27.55;19.33;;;5.40;99.90;;;;;;5052011;28;20675;-49
2021/12/29 04:25:46;;;;;;;30.20;20.58;;;5.40;99.90;;;;;;5051985;28;20200;-50
2021/12/29 04:28:20;;;;;;;31.85;21.60;;;5.40;99.90;;;;;;5051269;28;20598;-49
2021/12/29 04:30:47;;;;;;;27.70;19.10;;;5.40;99.90;;;;;;5052240;28;20196;-47
2021/12/29 04:33:14;;;;;;;33.00;21.50;;;5.40;99.90;;;;;;5051717;28;20207;-48
2021/12/29 04:35:43;;;;;;;28.60;21.43;;;5.50;99.90;;;;;;5033833;28;20196;-47
2021/12/29 04:38:09;;;;;;;32.60;21.23;;;5.50;99.90;;;;;;5033413;28;20592;-47
2021/12/29 04:40:36;;;;;;;26.37;19.80;;;5.50;99.90;;;;;;5033661;28;20801;-48
2021/12/29 04:43:03;;;;;;;33.10;20.23;;;5.50;99.90;;;;;;5033755;28;20442;-48
2021/12/29 04:45:32;;;;;;;30.73;19.98;;;5.50;99.90;;;;;;5051542;28;20474;-47
2021/12/29 04:47:59;;;;;;;28.97;19.53;;;5.60;99.90;;;;;;5033159;28;20263;-47
2021/12/29 04:50:29;;;;;;;28.00;18.83;;;5.60;99.90;;;;;;5030340;28;20451;-49
2021/12/29 04:52:59;;;;;;;26.98;17.00;;;5.60;99.90;;;;;;5013982;28;20295;-48
2021/12/29 04:55:28;;;;;;;25.13;17.70;;;5.60;99.90;;;;;;5014031;28;20288;-49
2021/12/29 04:57:55;;;;;;;25.50;16.87;;;5.60;99.90;;;;;;5031605;28;20841;-48
2021/12/29 05:00:24;;;;;;;24.50;17.00;;;5.60;99.90;;;;;;5032195;28;20428;-47
2021/12/29 05:02:54;;;;;;;29.53;18.03;;;5.60;99.90;;;;;;5014045;28;20459;-48
2021/12/29 05:05:37;;;;;;;33.00;20.27;;;5.60;99.90;;;;;;5019583;28;20510;-47
2021/12/29 05:10:51;;;;;;;26.90;18.50;;;5.70;99.90;;;;;;5051330;28;20407;-48
2021/12/29 05:13:19;;;;;;;25.63;18.80;;;5.70;99.90;;;;;;5033442;28;20465;-49
2021/12/29 05:15:45;;;;;;;26.77;18.27;;;5.70;99.90;;;;;;5051261;28;20437;-49
2021/12/29 05:18:12;;;;;;;23.05;17.83;;;5.70;99.90;;;;;;5050890;28;20429;-49
2021/12/29 05:20:43;;;;;;;23.70;17.17;;;5.80;99.90;;;;;;5051474;28;20192;-48
2021/12/29 05:23:11;;;;;;;23.73;17.50;;;5.70;99.90;;;;;;5033334;28;20930;-49
2021/12/29 05:25:38;;;;;;;24.00;16.77;;;5.80;99.90;;;;;;5033245;28;20429;-49
2021/12/29 05:28:05;;;;;;;23.37;15.93;;;5.80;99.90;;;;;;5033402;28;21023;-52
2021/12/29 05:30:31;;;;;;;23.40;15.50;;;5.80;99.90;;;;;;5051230;28;20466;-52
2021/12/29 05:33:01;;;;;;;26.87;16.20;;;5.80;99.90;;;;;;5033296;28;20462;-52
2021/12/29 05:35:28;;;;;;;32.72;15.35;;;5.80;99.90;;;;;;5051149;28;20835;-52
2021/12/29 05:37:55;;;;;;;21.58;14.80;;;5.90;99.90;;;;;;5050212;28;20227;-53
2021/12/29 05:40:25;;;;;;;23.20;16.23;;;5.90;99.90;;;;;;5033258;28;20232;-53
2021/12/29 05:42:55;;;;;;;23.43;15.50;;;5.90;99.90;;;;;;5033234;28;20463;-52
2021/12/29 05:45:27;;;;;;;22.20;16.03;;;5.90;99.90;;;;;;5033190;28;20413;-52
2021/12/29 05:47:57;;;;;;;26.17;14.70;;;5.90;99.90;;;;;;5050705;28;20480;-52
2021/12/29 05:50:28;;;;;;;26.10;16.50;;;5.90;99.90;;;;;;5050663;28;20922;-51
2021/12/29 05:52:56;;;;;;;23.50;14.60;;;6.00;99.90;;;;;;5050972;28;20523;-52
2021/12/29 05:55:24;;;;;;;23.70;15.37;;;6.00;99.90;;;;;;5051015;28;20445;-52
2021/12/29 05:57:51;;;;;;;26.77;15.47;;;6.00;99.90;;;;;;5050415;28;20462;-52
2021/12/29 06:00:20;;;;;;;18.97;13.60;;;6.00;99.90;;;;;;5051247;28;20553;-51
2021/12/29 06:02:47;;;;;;;24.17;14.20;;;6.10;99.90;;;;;;5054709;28;20505;-52
2021/12/29 06:05:14;;;;;;;27.20;14.00;;;6.10;99.90;;;;;;5054364;28;20506;-52
2021/12/29 06:07:41;;;;;;;18.87;13.37;;;6.10;99.90;;;;;;5053886;28;20454;-52
2021/12/29 06:10:14;;;;;;;19.37;13.07;;;6.10;99.90;;;;;;5036643;28;20911;-52
2021/12/29 06:12:44;;;;;;;19.67;13.30;;;6.20;99.90;;;;;;5055017;28;20462;-51
2021/12/29 06:15:11;;;;;;;19.53;13.30;;;6.20;99.90;;;;;;5054441;28;20518;-52
2021/12/29 06:17:39;;;;;;;20.60;15.07;;;6.20;99.90;;;;;;5053732;28;20438;-49
2021/12/29 06:20:08;;;;;;;18.10;11.13;;;6.20;99.90;;;;;;5054353;28;20851;-53
2021/12/29 06:22:35;;;;;;;19.83;11.77;;;6.20;99.90;;;;;;5054040;28;21005;-53
2021/12/29 06:25:02;;;;;;;18.90;11.47;;;6.20;99.90;;;;;;5036403;28;20678;-53
2021/12/29 06:27:28;;;;;;;23.30;13.70;;;6.20;99.90;;;;;;5053595;28;20452;-52
2021/12/29 06:29:56;;;;;;;21.27;12.80;;;6.20;99.90;;;;;;5035632;28;20944;-53
2021/12/29 06:32:23;;;;;;;22.63;13.20;;;6.20;99.90;;;;;;5054237;28;20435;-51
2021/12/29 06:34:53;;;;;;;20.10;12.97;;;6.20;99.90;;;;;;5036130;28;20438;-51
2021/12/29 06:37:20;;;;;;;22.67;14.03;;;6.20;99.90;;;;;;5053844;28;20440;-52
2021/12/29 06:39:47;;;;;;;20.40;13.00;;;6.30;99.90;;;;;;5035474;28;20451;-51
2021/12/29 06:42:16;;;;;;;24.07;13.27;;;6.30;99.90;;;;;;5035753;28;20417;-53
2021/12/29 06:44:45;;;;;;;18.93;12.53;;;6.30;99.90;;;;;;5054338;28;20448;-52
2021/12/29 06:47:13;;;;;;;22.40;13.80;;;6.30;99.90;;;;;;5035603;28;20450;-53
2021/12/29 06:49:40;;;;;;;24.37;13.03;;;6.30;99.90;;;;;;5053282;28;20903;-53
2021/12/29 06:52:08;;;;;;;24.10;15.23;;;6.30;99.90;;;;;;5053858;28;20447;-53
2021/12/29 06:54:37;;;;;;;28.20;14.17;;;6.30;99.90;;;;;;5053717;28;20642;-53
2021/12/29 06:57:07;;;;;;;26.83;14.97;;;6.40;99.90;;;;;;5053424;28;20949;-53
2021/12/29 06:59:33;;;;;;;24.07;15.50;;;6.40;99.90;;;;;;5053153;28;20813;-52
2021/12/29 07:02:01;;;;;;;25.20;14.50;;;6.30;99.90;;;;;;5035601;28;20986;-53
2021/12/29 07:04:29;;;;;;;33.30;17.97;;;6.30;99.90;;;;;;5035809;28;20461;-53
2021/12/29 07:06:56;;;;;;;26.73;15.63;;;6.40;99.90;;;;;;5053342;28;20475;-51
2021/12/29 07:09:23;;;;;;;26.27;15.37;;;6.40;99.90;;;;;;5052969;28;20480;-53
2021/12/29 07:11:50;;;;;;;26.67;14.73;;;6.40;99.90;;;;;;5034627;28;20903;-52
2021/12/29 07:14:19;;;;;;;29.43;14.57;;;6.40;99.90;;;;;;5034992;28;20534;-51
2021/12/29 07:16:50;;;;;;;31.83;16.30;;;6.40;99.90;;;;;;5053314;28;20428;-52
2021/12/29 07:19:18;;;;;;;28.73;17.13;;;6.40;99.90;;;;;;5034905;28;20468;-53
2021/12/29 07:21:47;;;;;;;38.00;18.30;;;6.40;99.90;;;;;;5035136;28;20537;-53
2021/12/29 07:24:13;;;;;;;26.20;16.60;;;6.40;99.90;;;;;;5052846;28;20446;-51
2021/12/29 07:26:40;;;;;;;26.53;15.57;;;6.50;99.90;;;;;;5053448;28;20467;-52
2021/12/29 07:29:08;;;;;;;26.17;15.60;;;6.40;99.90;;;;;;5034207;28;20486;-53
2021/12/29 07:31:36;;;;;;;28.47;16.53;;;6.50;99.90;;;;;;5035008;28;20509;-53
2021/12/29 07:34:02;;;;;;;34.97;16.33;;;6.50;99.90;;;;;;5035298;28;20513;-52
2021/12/29 07:36:31;;;;;;;24.47;16.50;;;6.50;99.90;;;;;;5052867;28;20414;-53
2021/12/29 07:39:00;;;;;;;28.70;16.83;;;6.50;99.90;;;;;;5034278;28;20454;-52
2021/12/29 07:41:26;;;;;;;33.13;16.43;;;6.50;99.90;;;;;;5034888;28;21002;-51
2021/12/29 07:43:54;;;;;;;28.87;17.40;;;6.50;99.90;;;;;;5034879;28;20880;-53
2021/12/29 07:46:21;;;;;;;33.87;16.57;;;6.50;99.90;;;;;;5034751;28;20438;-53
2021/12/29 07:48:48;;;;;;;28.27;15.73;;;6.50;99.90;;;;;;5052040;28;20540;-52
2021/12/29 07:51:16;;;;;;;30.80;15.77;;;6.50;99.90;;;;;;5031469;28;20965;-52
2021/12/29 07:53:43;;;;;;;32.53;17.73;;;6.50;99.90;;;;;;5032455;28;20411;-52
2021/12/29 07:56:12;;;;;;;29.03;16.20;;;6.60;99.90;;;;;;5032733;28;20538;-53
2021/12/29 07:58:39;;;;;;;25.27;15.17;;;6.50;99.90;;;;;;5014145;28;20690;-52
2021/12/29 08:01:06;;;;;;;25.40;13.87;;;6.50;99.90;;;;;;5032451;28;20404;-52
2021/12/29 08:03:32;;;;;;;24.73;14.90;;;6.60;99.90;;;;;;5014594;28;20459;-51
2021/12/29 08:05:59;;;;;;;31.43;16.63;;;6.50;99.90;;;;;;5042980;28;20479;-52
2021/12/29 08:08:26;;;;;;;25.00;14.53;;;6.50;99.90;;;;;;5051318;28;20993;-52
2021/12/29 08:10:53;;;;;;;24.60;14.60;;;6.50;99.90;;;;;;5033969;28;20801;-51
2021/12/29 08:13:21;;;;;;;26.53;15.57;;;6.60;99.90;;;;;;5034131;28;20525;-52
2021/12/29 08:15:50;;;;;;;25.80;14.43;;;6.50;99.90;;;;;;5051922;28;20448;-53
2021/12/29 08:18:16;;;;;;;31.67;16.27;;;6.50;99.90;;;;;;5033580;28;20627;-53
2021/12/29 08:20:43;;;;;;;28.60;17.17;;;6.50;99.90;;;;;;5052177;28;20501;-55
2021/12/29 08:23:11;;;;;;;25.07;15.53;;;6.60;99.90;;;;;;5033664;28;20931;-52
2021/12/29 08:25:38;;;;;;;34.07;16.30;;;6.60;99.90;;;;;;5051479;28;20402;-53
2021/12/29 08:28:06;;;;;;;33.50;18.33;;;6.60;99.90;;;;;;5051376;28;20458;-53
2021/12/29 08:30:35;;;;;;;32.60;18.00;;;6.60;99.90;;;;;;5033764;28;20546;-52
2021/12/29 08:33:02;;;;;;;29.60;17.83;;;6.60;99.90;;;;;;5033576;28;20426;-52
2021/12/29 08:35:29;;;;;;;35.20;17.90;;;6.60;99.90;;;;;;5033278;28;20445;-53
2021/12/29 08:37:57;;;;;;;27.13;16.30;;;6.60;99.90;;;;;;5033387;28;20442;-53
2021/12/29 08:40:24;;;;;;;29.33;16.70;;;6.60;99.90;;;;;;5051517;28;20505;-53
2021/12/29 08:42:52;;;;;;;28.37;16.37;;;6.70;99.90;;;;;;5051715;28;20473;-52
2021/12/29 08:45:21;;;;;;;32.10;17.17;;;6.70;99.90;;;;;;5033434;28;20426;-53
2021/12/29 08:47:52;;;;;;;27.20;15.93;;;6.70;99.90;;;;;;5051059;28;20543;-53
2021/12/29 08:50:20;;;;;;;24.23;15.30;;;6.80;99.90;;;;;;5051334;28;20426;-54
2021/12/29 08:52:49;;;;;;;30.03;14.93;;;6.80;99.90;;;;;;5051257;28;20443;-53
2021/12/29 08:55:16;;;;;;;24.53;15.50;;;6.90;99.90;;;;;;5052014;28;20453;-52
2021/12/29 08:57:45;;;;;;;23.60;15.17;;;6.90;99.90;;;;;;5033101;28;20447;-53
2021/12/29 09:00:15;;;;;;;23.33;14.93;;;6.90;99.90;;;;;;5033414;28;20427;-53
2021/12/29 09:02:43;;;;;;;25.20;16.40;;;6.90;99.90;;;;;;5033402;28;20458;-51
2021/12/29 09:05:13;;;;;;;30.63;16.60;;;7.00;99.90;;;;;;5051094;28;20441;-52
2021/12/29 09:07:41;;;;;;;24.77;16.00;;;7.00;99.90;;;;;;5050759;28;20406;-51
2021/12/29 09:10:09;;;;;;;29.60;15.97;;;7.00;99.90;;;;;;5033282;28;20459;-53
2021/12/29 09:12:36;;;;;;;32.20;17.03;;;7.00;99.90;;;;;;5051251;28;20408;-53
2021/12/29 09:15:04;;;;;;;29.30;16.73;;;7.10;99.90;;;;;;5033416;28;20865;-53
2021/12/29 09:17:31;;;;;;;30.50;17.30;;;7.10;99.90;;;;;;5051068;28;20495;-53
2021/12/29 09:20:00;;;;;;;23.07;15.63;;;7.10;99.90;;;;;;5032682;28;20505;-53
2021/12/29 09:22:31;;;;;;;24.83;16.60;;;7.10;99.90;;;;;;5050816;28;20399;-54
2021/12/29 09:24:59;;;;;;;33.67;17.33;;;7.20;99.90;;;;;;5016417;28;20529;-52
2021/12/29 09:27:26;;;;;;;23.97;16.93;;;7.20;99.90;;;;;;5050837;28;20421;-54
2021/12/29 09:29:55;;;;;;;27.50;17.33;;;7.20;99.90;;;;;;5032519;28;20534;-52
2021/12/29 09:32:30;;;;;;;30.33;18.10;;;7.30;99.90;;;;;;5033014;28;20544;-53
2021/12/29 09:34:59;;;;;;;29.87;19.37;;;7.20;99.90;;;;;;5050975;28;20495;-52
2021/12/29 09:37:26;;;;;;;29.77;19.57;;;7.30;99.90;;;;;;5036604;28;20481;-53
2021/12/29 09:39:54;;;;;;;29.77;18.33;;;7.30;99.90;;;;;;5054244;28;20881;-52
2021/12/29 09:42:21;;;;;;;28.80;18.77;;;7.30;99.90;;;;;;5054902;28;20435;-52
2021/12/29 09:44:48;;;;;;;31.20;18.33;;;7.30;99.90;;;;;;5036476;28;20547;-51
2021/12/29 09:47:16;;;;;;;28.60;16.53;;;7.40;99.90;;;;;;5054222;28;20469;-52
2021/12/29 09:49:43;;;;;;;28.10;17.73;;;7.40;99.90;;;;;;5054220;28;20464;-52
2021/12/29 09:52:10;;;;;;;34.90;17.37;;;7.40;99.90;;;;;;5053586;28;20452;-52
2021/12/29 09:54:36;;;;;;;29.93;19.20;;;7.50;99.90;;;;;;5054431;28;20514;-53
2021/12/29 09:57:05;;;;;;;27.40;17.27;;;7.50;99.90;;;;;;5054478;28;20520;-52
2021/12/29 09:59:32;;;;;;;28.53;17.80;;;7.50;99.90;;;;;;5036085;28;20506;-52
2021/12/29 10:02:01;;;;;;;27.97;17.93;;;7.50;99.90;;;;;;5054229;28;20764;-52
2021/12/29 10:04:27;;;;;;;25.00;16.83;;;7.50;99.90;;;;;;5054216;28;20536;-52
2021/12/29 10:06:54;;;;;;;28.97;16.37;;;7.50;99.90;;;;;;5036145;28;21048;-52
2021/12/29 10:09:22;;;;;;;24.97;16.80;;;7.60;99.90;;;;;;5054042;28;20495;-53
2021/12/29 10:11:49;;;;;;;25.20;16.90;;;7.60;99.90;;;;;;5036020;28;20948;-53
2021/12/29 10:14:18;;;;;;;27.50;15.50;;;7.60;99.90;;;;;;5036527;28;20456;-52
2021/12/29 10:16:50;;;;;;;27.23;17.87;;;7.60;99.90;;;;;;5055152;28;20770;-52
2021/12/29 10:19:17;;;;;;;25.30;17.57;;;7.60;99.90;;;;;;5053686;28;20485;-52
2021/12/29 10:21:46;;;;;;;23.83;16.47;;;7.60;99.90;;;;;;5054142;28;20854;-54
2021/12/29 10:24:14;;;;;;;26.07;16.00;;;7.60;99.90;;;;;;5054226;28;20500;-53
2021/12/29 10:26:43;;;;;;;33.30;16.10;;;7.70;99.90;;;;;;5053688;28;20519;-53
2021/12/29 10:29:12;;;;;;;24.87;16.00;;;7.60;99.90;;;;;;5053649;28;20514;-51
2021/12/29 10:31:43;;;;;;;24.53;16.60;;;7.70;99.90;;;;;;5053494;28;20441;-53
2021/12/29 10:34:12;;;;;;;23.03;15.50;;;7.70;99.90;;;;;;5053855;28;20540;-53
2021/12/29 10:36:42;;;;;;;28.27;16.30;;;7.70;99.90;;;;;;5035537;28;20944;-53
2021/12/29 10:39:14;;;;;;;28.60;17.10;;;7.70;99.90;;;;;;5053601;28;20453;-53
2021/12/29 10:41:50;;;;;;;26.23;16.53;;;7.80;99.90;;;;;;5035722;28;20544;-53
2021/12/29 10:44:26;;;;;;;22.83;16.40;;;7.80;99.90;;;;;;5053232;28;20937;-52
2021/12/29 10:46:56;;;;;;;26.77;18.13;;;7.80;99.90;;;;;;5035165;28;20441;-54
2021/12/29 10:49:24;;;;;;;25.80;17.47;;;7.80;99.90;;;;;;5035113;28;20524;-54
2021/12/29 10:51:52;;;;;;;24.03;16.97;;;7.90;99.90;;;;;;5031960;28;20484;-53
2021/12/29 10:54:24;;;;;;;26.83;16.67;;;7.80;99.90;;;;;;5015676;28;20429;-53
2021/12/29 10:57:00;;;;;;;29.03;18.47;;;7.90;99.90;;;;;;5033837;28;20471;-51
2021/12/29 10:59:30;;;;;;;33.40;19.60;;;7.90;99.90;;;;;;5033081;28;20520;-52
2021/12/29 11:01:59;;;;;;;28.03;18.70;;;7.90;99.90;;;;;;5015327;28;20459;-52
2021/12/29 11:04:27;;;;;;;35.00;20.53;;;7.90;99.90;;;;;;5033422;28;20420;-52
2021/12/29 11:06:57;;;;;;;31.97;18.40;;;7.90;99.90;;;;;;5033359;28;21015;-53
2021/12/29 11:09:26;;;;;;;28.50;18.53;;;7.90;99.90;;;;;;5034852;28;20535;-53
2021/12/29 11:11:56;;;;;;;35.13;20.43;;;7.90;99.90;;;;;;5034969;28;20428;-53
2021/12/29 11:14:26;;;;;;;32.20;19.47;;;7.90;99.90;;;;;;5053166;28;20525;-51
2021/12/29 11:17:04;;;;;;;33.83;20.67;;;8.00;99.90;;;;;;5052910;28;20883;-52
2021/12/29 11:19:31;;;;;;;29.63;19.10;;;8.00;99.90;;;;;;5034776;28;20975;-52
2021/12/29 11:22:07;;;;;;;32.20;20.57;;;8.00;99.90;;;;;;5052851;28;20443;-54
2021/12/29 11:24:34;;;;;;;32.70;21.73;;;8.00;99.90;;;;;;5035067;28;20512;-52
2021/12/29 11:27:09;;;;;;;31.70;19.87;;;7.90;99.90;;;;;;5052693;28;20544;-53
2021/12/29 11:29:48;;;;;;;33.63;20.90;;;7.90;99.90;;;;;;5034876;28;20486;-48
2021/12/29 11:32:23;;;;;;;31.37;20.47;;;8.00;99.90;;;;;;5034847;28;20445;-49
2021/12/29 11:35:12;;;;;;;34.87;21.50;;;8.00;99.90;;;;;;5053175;28;20508;-49
2021/12/29 11:37:41;;;;;;;25.60;18.43;;;8.00;99.90;;;;;;5052194;28;20422;-49
2021/12/29 11:40:10;;;;;;;31.97;20.30;;;8.00;99.90;;;;;;5034104;28;20450;-50
2021/12/29 11:42:36;;;;;;;34.53;21.40;;;7.90;99.90;;;;;;5051691;28;20914;-48
2021/12/29 11:45:04;;;;;;;32.80;18.90;;;8.00;99.90;;;;;;5051735;28;20798;-48
2021/12/29 11:47:32;;;;;;;35.07;21.10;;;8.00;99.90;;;;;;5051863;28;20621;-49
2021/12/29 11:49:59;;;;;;;32.83;21.80;;;7.90;99.90;;;;;;5051118;28;20491;-49
2021/12/29 11:52:46;;;;;;;38.70;20.10;;;7.90;99.90;;;;;;5051550;28;20427;-49
2021/12/29 11:55:16;;;;;;;28.80;20.97;;;7.90;99.90;;;;;;5051812;28;20549;-50
2021/12/29 11:57:44;;;;;;;31.17;18.40;;;7.90;99.90;;;;;;5032876;28;21170;-49
2021/12/29 12:00:14;;;;;;;30.83;19.47;;;7.90;99.90;;;;;;5051236;28;20430;-49
2021/12/29 12:02:46;;;;;;;29.93;19.03;;;7.90;99.90;;;;;;5033494;28;20438;-49
2021/12/29 12:05:15;;;;;;;33.60;20.27;;;7.90;99.90;;;;;;5051723;28;20529;-49
2021/12/29 12:07:42;;;;;;;34.13;18.33;;;7.90;99.90;;;;;;5032764;28;20557;-51
2021/12/29 12:10:14;;;;;;;49.60;29.70;;;7.90;99.90;;;;;;5051729;28;20480;-50
2021/12/29 12:12:46;;;;;;;38.30;22.10;;;7.90;99.90;;;;;;5051795;28;20430;-49
2021/12/29 12:15:14;;;;;;;32.37;18.10;;;7.80;99.90;;;;;;5051731;28;20401;-49
2021/12/29 12:17:42;;;;;;;31.80;21.17;;;7.90;99.90;;;;;;5032997;28;20449;-49
2021/12/29 12:20:15;;;;;;;34.00;20.73;;;7.90;99.90;;;;;;5033467;28;20447;-48
2021/12/29 12:22:45;;;;;;;29.20;18.40;;;7.90;99.90;;;;;;5051570;28;20434;-49
2021/12/29 12:25:18;;;;;;;34.33;19.30;;;7.90;99.90;;;;;;5051474;28;20457;-48
2021/12/29 12:27:50;;;;;;;28.90;17.90;;;7.90;99.90;;;;;;5032902;28;20496;-48
2021/12/29 12:30:22;;;;;;;25.50;18.07;;;7.90;99.90;;;;;;5033156;28;20463;-49
2021/12/29 12:32:50;;;;;;;28.47;18.50;;;8.00;99.90;;;;;;5033377;28;20523;-49
2021/12/29 12:35:30;;;;;;;32.33;18.43;;;8.00;99.90;;;;;;5050580;28;20532;-48
2021/12/29 12:38:11;;;;;;;31.67;19.20;;;8.00;99.90;;;;;;5051071;28;20469;-48
2021/12/29 12:40:38;;;;;;;31.57;20.40;;;8.00;99.90;;;;;;5051473;28;20977;-49
2021/12/29 12:43:10;;;;;;;34.30;19.07;;;8.00;99.90;;;;;;5050785;28;20815;-48
2021/12/29 12:45:39;;;;;;;34.33;20.10;;;8.00;99.90;;;;;;5051145;28;20913;-48
2021/12/29 12:48:08;;;;;;;31.77;19.40;;;8.10;99.90;;;;;;5032596;28;20497;-47
2021/12/29 12:50:38;;;;;;;37.83;19.53;;;8.10;99.90;;;;;;5051169;28;20488;-47